Anzahl Datensätze: 143
min. Temperatur: 8.2 °C
max. Temperatur: 19.6 °C
max. Windgeschwindigkeit: 11.5 km/h
Niederschlagsumme: 0.0 mm
| Datum |
Zeit |
Temp °C |
Feuchte % |
Taupunkt °C |
Luftdruck hPa |
Wind km/h |
Windrichtung |
Strahlung w/m² |
Niederschlag mm |
|---|---|---|---|---|---|---|---|---|---|
| 16.04.2026 | 00:09 | 8.9 | 85 | 6.5 | 1022.0 | 2.2 | NNO | 0 | 0.0 |
| 16.04.2026 | 00:19 | 9.2 | 83 | 6.5 | 1021.9 | 0.7 | N | 0 | 0.0 |
| 16.04.2026 | 00:29 | 9.3 | 83 | 6.6 | 1021.8 | 1.8 | N | 0 | 0.0 |
| 16.04.2026 | 00:39 | 9.3 | 83 | 6.5 | 1022.0 | 3.2 | SSW | 0 | 0.0 |
| 16.04.2026 | 00:49 | 9.2 | 83 | 6.6 | 1022.0 | 3.2 | WNW | 0 | 0.0 |
| 16.04.2026 | 00:59 | 9.1 | 84 | 6.6 | 1022.0 | 2.2 | S | 0 | 0.0 |
| 16.04.2026 | 01:09 | 9.1 | 84 | 6.5 | 1022.0 | 1.4 | N | 0 | 0.0 |
| 16.04.2026 | 01:19 | 9.2 | 83 | 6.5 | 1022.0 | 1.4 | N | 0 | 0.0 |
| 16.04.2026 | 01:29 | 9.1 | 83 | 6.3 | 1022.0 | 1.1 | N | 0 | 0.0 |
| 16.04.2026 | 01:39 | 9.1 | 82 | 6.2 | 1021.9 | 2.9 | NNO | 0 | 0.0 |
| 16.04.2026 | 01:49 | 9.2 | 82 | 6.3 | 1021.8 | 0.7 | N | 0 | 0.0 |
| 16.04.2026 | 01:59 | 9.1 | 85 | 6.8 | 1021.9 | 0.7 | N | 0 | 0.0 |
| 16.04.2026 | 02:09 | 9.0 | 84 | 6.4 | 1021.9 | 1.8 | NNO | 0 | 0.0 |
| 16.04.2026 | 02:19 | 9.0 | 85 | 6.6 | 1021.7 | 3.6 | S | 0 | 0.0 |
| 16.04.2026 | 02:29 | 9.1 | 85 | 6.6 | 1021.7 | 0.7 | N | 0 | 0.0 |
| 16.04.2026 | 02:39 | 9.1 | 83 | 6.5 | 1021.5 | 0.4 | N | 0 | 0.0 |
| 16.04.2026 | 02:49 | 8.9 | 84 | 6.3 | 1021.5 | 1.4 | NNO | 0 | 0.0 |
| 16.04.2026 | 02:59 | 8.9 | 84 | 6.4 | 1021.5 | 1.8 | N | 0 | 0.0 |
| 16.04.2026 | 03:09 | 9.1 | 84 | 6.5 | 1021.4 | 1.1 | N | 0 | 0.0 |
| 16.04.2026 | 03:19 | 8.7 | 87 | 6.7 | 1021.6 | 0.7 | N | 0 | 0.0 |
| 16.04.2026 | 03:29 | 8.9 | 85 | 6.5 | 1021.6 | 0.7 | N | 0 | 0.0 |
| 16.04.2026 | 03:39 | 8.8 | 86 | 6.5 | 1021.6 | 2.2 | S | 0 | 0.0 |
| 16.04.2026 | 03:49 | 8.8 | 86 | 6.6 | 1021.6 | 1.1 | N | 0 | 0.0 |
| 16.04.2026 | 03:59 | 8.9 | 87 | 6.8 | 1021.7 | 1.1 | N | 0 | 0.0 |
| 16.04.2026 | 04:09 | 8.8 | 87 | 6.8 | 1021.9 | 0.7 | N | 0 | 0.0 |
| 16.04.2026 | 04:19 | 8.8 | 86 | 6.6 | 1021.8 | 0.4 | N | 0 | 0.0 |
| 16.04.2026 | 04:29 | 8.9 | 86 | 6.7 | 1021.9 | 2.2 | N | 0 | 0.0 |
| 16.04.2026 | 04:39 | 8.7 | 87 | 6.7 | 1021.9 | 1.4 | SSW | 0 | 0.0 |
| 16.04.2026 | 04:50 | 8.6 | 87 | 6.6 | 1022.0 | 3.6 | SSO | 0 | 0.0 |
| 16.04.2026 | 05:00 | 8.6 | 88 | 6.7 | 1022.0 | 1.4 | N | 0 | 0.0 |
| 16.04.2026 | 05:10 | 8.5 | 87 | 6.4 | 1022.1 | 0.7 | N | 0 | 0.0 |
| 16.04.2026 | 05:20 | 8.5 | 87 | 6.4 | 1022.0 | 2.5 | N | 0 | 0.0 |
| 16.04.2026 | 05:30 | 8.6 | 86 | 6.4 | 1022.0 | 2.5 | NNO | 0 | 0.0 |
| 16.04.2026 | 05:40 | 8.8 | 85 | 6.4 | 1021.8 | 2.5 | SSW | 0 | 0.0 |
| 16.04.2026 | 05:50 | 8.7 | 88 | 6.8 | 1021.8 | 2.5 | SSW | 0 | 0.0 |
| 16.04.2026 | 06:00 | 8.4 | 89 | 6.6 | 1021.9 | 2.9 | N | 0 | 0.0 |
| 16.04.2026 | 06:10 | 8.6 | 88 | 6.6 | 1022.0 | 1.4 | NW | 0 | 0.0 |
| 16.04.2026 | 06:20 | 8.5 | 87 | 6.5 | 1021.9 | 1.4 | N | 0 | 0.0 |
| 16.04.2026 | 06:30 | 8.8 | 86 | 6.5 | 1021.9 | 0.7 | N | 0 | 0.0 |
| 16.04.2026 | 06:40 | 8.6 | 87 | 6.7 | 1022.1 | 2.2 | SSW | 0 | 0.0 |
| 16.04.2026 | 06:50 | 8.4 | 88 | 6.5 | 1022.2 | 1.4 | NNO | 2 | 0.0 |
| 16.04.2026 | 07:00 | 8.4 | 88 | 6.5 | 1022.3 | 1.8 | N | 3 | 0.0 |
| 16.04.2026 | 07:10 | 8.2 | 90 | 6.6 | 1022.5 | 1.4 | S | 7 | 0.0 |
| 16.04.2026 | 07:20 | 8.5 | 87 | 6.5 | 1022.5 | 1.4 | WSW | 11 | 0.0 |
| 16.04.2026 | 07:30 | 8.4 | 88 | 6.6 | 1022.6 | 1.8 | N | 15 | 0.0 |
| 16.04.2026 | 07:40 | 8.9 | 87 | 6.8 | 1022.5 | 1.1 | N | 22 | 0.0 |
| 16.04.2026 | 07:50 | 8.4 | 90 | 6.9 | 1022.7 | 1.8 | S | 27 | 0.0 |
| 16.04.2026 | 08:00 | 8.8 | 88 | 6.8 | 1022.7 | 0.7 | N | 32 | 0.0 |
| 16.04.2026 | 08:10 | 8.8 | 89 | 7.1 | 1022.6 | 0.4 | N | 42 | 0.0 |
| 16.04.2026 | 08:20 | 8.5 | 90 | 7.0 | 1022.7 | 2.9 | S | 49 | 0.0 |
| 16.04.2026 | 08:30 | 8.3 | 92 | 7.0 | 1022.9 | 1.4 | SW | 65 | 0.0 |
| 16.04.2026 | 08:40 | 9.1 | 87 | 7.0 | 1022.9 | 0.7 | S | 73 | 0.0 |
| 16.04.2026 | 08:50 | 9.0 | 86 | 6.9 | 1022.8 | 2.2 | S | 83 | 0.0 |
| 16.04.2026 | 09:00 | 9.0 | 85 | 6.7 | 1022.8 | 1.4 | NW | 94 | 0.0 |
| 16.04.2026 | 09:10 | 8.8 | 88 | 6.9 | 1022.9 | 4.3 | S | 113 | 0.0 |
| 16.04.2026 | 09:20 | 8.6 | 90 | 7.0 | 1022.9 | 2.9 | SSW | 145 | 0.0 |
| 16.04.2026 | 09:30 | 8.6 | 89 | 7.0 | 1022.9 | 2.9 | SSW | 146 | 0.0 |
| 16.04.2026 | 09:40 | 8.8 | 87 | 6.8 | 1022.9 | 3.2 | S | 169 | 0.0 |
| 16.04.2026 | 09:50 | 8.7 | 88 | 6.8 | 1022.8 | 3.6 | SSW | 186 | 0.0 |
| 16.04.2026 | 10:00 | 10.4 | 78 | 6.9 | 1022.4 | 1.8 | SW | 201 | 0.0 |
| 16.04.2026 | 10:11 | 9.6 | 84 | 7.0 | 1022.7 | 5.0 | SSW | 312 | 0.0 |
| 16.04.2026 | 10:21 | 9.5 | 86 | 7.2 | 1022.6 | 1.8 | SSW | 283 | 0.0 |
| 16.04.2026 | 10:31 | 10.5 | 81 | 7.3 | 1022.1 | 5.4 | S | 251 | 0.0 |
| 16.04.2026 | 10:41 | 11.0 | 78 | 7.3 | 1022.0 | 2.9 | SSW | 483 | 0.0 |
| 16.04.2026 | 10:51 | 11.4 | 79 | 7.8 | 1021.9 | 3.2 | SSW | 487 | 0.0 |
| 16.04.2026 | 11:01 | 11.5 | 76 | 7.4 | 1021.7 | 6.5 | S | 508 | 0.0 |
| 16.04.2026 | 11:11 | 10.8 | 78 | 7.1 | 1021.8 | 5.0 | SSW | 524 | 0.0 |
| 16.04.2026 | 11:21 | 11.5 | 76 | 7.4 | 1021.7 | 4.3 | SSW | 538 | 0.0 |
| 16.04.2026 | 11:31 | 11.7 | 75 | 7.5 | 1021.5 | 4.3 | S | 560 | 0.0 |
| 16.04.2026 | 11:41 | 11.0 | 78 | 7.4 | 1021.7 | 2.9 | SSW | 572 | 0.0 |
| 16.04.2026 | 11:51 | 13.7 | 70 | 8.4 | 1020.7 | 5.4 | WSW | 579 | 0.0 |
| 16.04.2026 | 12:01 | 13.9 | 67 | 7.9 | 1020.6 | 4.0 | S | 591 | 0.0 |
| 16.04.2026 | 12:11 | 13.7 | 70 | 8.4 | 1020.6 | 3.2 | SW | 610 | 0.0 |
| 16.04.2026 | 12:21 | 14.8 | 63 | 7.9 | 1020.3 | 2.2 | WSW | 638 | 0.0 |
| 16.04.2026 | 12:31 | 16.0 | 62 | 8.8 | 1020.0 | 2.5 | SSW | 649 | 0.0 |
| 16.04.2026 | 12:41 | 15.8 | 62 | 8.4 | 1020.1 | 4.0 | SW | 639 | 0.0 |
| 16.04.2026 | 12:51 | 15.1 | 64 | 8.3 | 1020.1 | 3.2 | SSW | 628 | 0.0 |
| 16.04.2026 | 13:01 | 15.2 | 62 | 8.0 | 1019.8 | 3.6 | SSW | 633 | 0.0 |
| 16.04.2026 | 13:11 | 15.3 | 64 | 8.5 | 1019.9 | 6.1 | SW | 636 | 0.0 |
| 16.04.2026 | 13:21 | 14.9 | 66 | 8.7 | 1019.7 | 4.7 | SW | 635 | 0.0 |
| 16.04.2026 | 13:31 | 17.0 | 57 | 8.4 | 1019.3 | 4.3 | SW | 634 | 0.0 |
| 16.04.2026 | 13:41 | 17.6 | 50 | 7.0 | 1019.1 | 2.5 | SW | 635 | 0.0 |
| 16.04.2026 | 13:51 | 14.9 | 58 | 6.7 | 1019.6 | 2.9 | SSW | 634 | 0.0 |
| 16.04.2026 | 14:01 | 16.0 | 55 | 7.1 | 1019.4 | 4.7 | SSW | 627 | 0.0 |
| 16.04.2026 | 14:11 | 17.4 | 52 | 7.4 | 1018.9 | 4.7 | WSW | 623 | 0.0 |
| 16.04.2026 | 14:21 | 16.9 | 56 | 8.1 | 1018.9 | 4.0 | WSW | 607 | 0.0 |
| 16.04.2026 | 14:31 | 18.0 | 48 | 6.9 | 1018.8 | 3.6 | WSW | 614 | 0.0 |
| 16.04.2026 | 14:41 | 18.8 | 48 | 7.4 | 1018.5 | 2.9 | S | 596 | 0.0 |
| 16.04.2026 | 14:51 | 18.5 | 49 | 7.6 | 1018.6 | 3.6 | WSW | 600 | 0.0 |
| 16.04.2026 | 15:01 | 17.1 | 53 | 7.5 | 1018.8 | 2.9 | SSW | 588 | 0.0 |
| 16.04.2026 | 15:11 | 17.4 | 54 | 8.0 | 1018.8 | 1.8 | SSW | 579 | 0.0 |
| 16.04.2026 | 15:22 | 19.6 | 48 | 8.2 | 1018.2 | 2.5 | N | 571 | 0.0 |
| 16.04.2026 | 15:32 | 19.5 | 41 | 6.0 | 1018.1 | 4.0 | SSW | 573 | 0.0 |
| 16.04.2026 | 15:42 | 16.2 | 62 | 8.9 | 1018.7 | 4.3 | SSW | 314 | 0.0 |
| 16.04.2026 | 15:52 | 16.6 | 48 | 5.6 | 1018.7 | 3.2 | SSW | 565 | 0.0 |
| 16.04.2026 | 16:02 | 16.9 | 49 | 6.1 | 1018.5 | 4.7 | SSW | 533 | 0.0 |
| 16.04.2026 | 16:12 | 17.1 | 47 | 5.5 | 1018.5 | 5.4 | SSW | 497 | 0.0 |
| 16.04.2026 | 16:22 | 15.6 | 55 | 6.6 | 1018.7 | 4.7 | SSW | 466 | 0.0 |
| 16.04.2026 | 16:32 | 17.4 | 44 | 4.9 | 1018.3 | 4.3 | SSW | 443 | 0.0 |
| 16.04.2026 | 16:42 | 15.7 | 52 | 6.0 | 1018.6 | 6.8 | S | 428 | 0.0 |
| 16.04.2026 | 16:52 | 16.4 | 49 | 5.7 | 1018.3 | 4.7 | SSW | 405 | 0.0 |
| 16.04.2026 | 17:02 | 16.8 | 46 | 5.0 | 1018.1 | 3.2 | SSW | 380 | 0.0 |
| 16.04.2026 | 17:12 | 16.9 | 46 | 5.3 | 1018.0 | 3.6 | SSW | 365 | 0.0 |
| 16.04.2026 | 17:22 | 16.9 | 45 | 4.7 | 1018.1 | 5.4 | SSW | 338 | 0.0 |
| 16.04.2026 | 17:32 | 16.5 | 45 | 4.4 | 1018.2 | 4.7 | S | 308 | 0.0 |
| 16.04.2026 | 17:42 | 16.4 | 47 | 5.0 | 1018.2 | 3.2 | SSW | 266 | 0.0 |
| 16.04.2026 | 17:52 | 18.0 | 41 | 4.5 | 1017.8 | 2.2 | WSW | 237 | 0.0 |
| 16.04.2026 | 18:02 | 17.8 | 42 | 4.7 | 1018.0 | 2.9 | SSW | 191 | 0.0 |
| 16.04.2026 | 18:12 | 18.3 | 40 | 4.3 | 1017.8 | 3.2 | SSW | 189 | 0.0 |
| 16.04.2026 | 18:22 | 17.5 | 41 | 4.2 | 1018.0 | 2.5 | SSW | 129 | 0.0 |
| 16.04.2026 | 18:32 | 17.2 | 44 | 4.8 | 1018.2 | 4.7 | S | 111 | 0.0 |
| 16.04.2026 | 18:42 | 16.9 | 47 | 5.4 | 1018.2 | 5.4 | S | 84 | 0.0 |
| 16.04.2026 | 18:52 | 16.8 | 48 | 5.8 | 1018.2 | 4.0 | S | 104 | 0.0 |
| 16.04.2026 | 19:02 | 15.9 | 50 | 5.5 | 1018.5 | 1.4 | SSO | 73 | 0.0 |
| 16.04.2026 | 19:12 | 16.0 | 50 | 5.6 | 1018.5 | 6.1 | N | 59 | 0.0 |
| 16.04.2026 | 19:22 | 16.5 | 48 | 5.6 | 1018.4 | 1.8 | S | 49 | 0.0 |
| 16.04.2026 | 19:32 | 15.9 | 52 | 6.0 | 1018.5 | 4.7 | SSW | 32 | 0.0 |
| 16.04.2026 | 19:42 | 16.0 | 50 | 5.7 | 1018.5 | 3.2 | SSW | 17 | 0.0 |
| 16.04.2026 | 19:52 | 15.7 | 51 | 5.5 | 1018.6 | 1.4 | N | 11 | 0.0 |
| 16.04.2026 | 20:02 | 15.5 | 51 | 5.3 | 1018.7 | 5.0 | NNO | 6 | 0.0 |
| 16.04.2026 | 20:12 | 15.5 | 50 | 5.2 | 1018.7 | 2.2 | N | 3 | 0.0 |
| 16.04.2026 | 20:23 | 15.3 | 51 | 5.1 | 1018.7 | 2.2 | SO | 0 | 0.0 |
| 16.04.2026 | 20:33 | 15.1 | 51 | 5.2 | 1018.9 | 2.5 | SSW | 0 | 0.0 |
| 16.04.2026 | 20:43 | 14.9 | 52 | 5.3 | 1018.9 | 3.6 | NNO | 0 | 0.0 |
| 16.04.2026 | 20:53 | 14.4 | 56 | 5.7 | 1019.2 | 5.4 | N | 0 | 0.0 |
| 16.04.2026 | 21:03 | 14.2 | 57 | 5.8 | 1019.3 | 5.0 | N | 0 | 0.0 |
| 16.04.2026 | 21:13 | 14.0 | 58 | 5.8 | 1019.5 | 3.6 | N | 0 | 0.0 |
| 16.04.2026 | 21:23 | 14.0 | 58 | 6.0 | 1019.6 | 5.8 | N | 0 | 0.0 |
| 16.04.2026 | 21:33 | 14.0 | 58 | 5.9 | 1019.5 | 3.6 | N | 0 | 0.0 |
| 16.04.2026 | 21:43 | 13.7 | 58 | 5.7 | 1019.5 | 6.8 | NO | 0 | 0.0 |
| 16.04.2026 | 21:53 | 13.6 | 57 | 5.4 | 1019.7 | 4.0 | NNO | 0 | 0.0 |
| 16.04.2026 | 22:03 | 13.3 | 58 | 5.2 | 1019.8 | 2.9 | NNO | 0 | 0.0 |
| 16.04.2026 | 22:13 | 13.3 | 58 | 5.1 | 1019.7 | 8.3 | NNO | 0 | 0.0 |
| 16.04.2026 | 22:23 | 12.8 | 59 | 5.1 | 1019.9 | 6.8 | N | 0 | 0.0 |
| 16.04.2026 | 22:33 | 12.5 | 60 | 5.1 | 1019.8 | 7.2 | NNO | 0 | 0.0 |
| 16.04.2026 | 22:43 | 12.4 | 60 | 4.9 | 1019.9 | 6.5 | N | 0 | 0.0 |
| 16.04.2026 | 22:53 | 12.0 | 64 | 5.5 | 1020.1 | 0.4 | SO | 0 | 0.0 |
| 16.04.2026 | 23:03 | 11.6 | 66 | 5.3 | 1020.4 | 0.7 | N | 0 | 0.0 |
| 16.04.2026 | 23:13 | 11.0 | 68 | 5.3 | 1020.4 | 2.9 | NNO | 0 | 0.0 |
| 16.04.2026 | 23:23 | 11.1 | 68 | 5.3 | 1020.4 | 1.4 | N | 0 | 0.0 |
| 16.04.2026 | 23:33 | 10.9 | 69 | 5.4 | 1020.5 | 1.1 | N | 0 | 0.0 |
| 16.04.2026 | 23:43 | 10.5 | 70 | 5.2 | 1020.6 | 1.4 | NO | 0 | 0.0 |
| 16.04.2026 | 23:53 | 10.1 | 71 | 5.1 | 1020.6 | 2.5 | NNO | 0 | 0.0 |